Time;durP1;ratioP1;P1;durP2;ratioP2;P2;SDS_P1;SDS_P2;PMS_P1;PMS_P2;Temp;Humidity;BMP_temperature;BMP_pressure;BME280_temperature;BME280_humidity;BME280_pressure;Samples;Min_cycle;Max_cycle;Signal;HPM_P1;HPM_P2
2022/03/30 00:00:31;;;;;;;15.55;9.30;;;;;;;15.56;47.01;99465.91;5031327;28;20211;-71
2022/03/30 00:02:57;;;;;;;17.52;9.25;;;;;;;15.57;47.06;99467.63;5031573;28;20236;-71
2022/03/30 00:05:24;;;;;;;15.70;9.27;;;;;;;15.54;47.16;99455.50;5031018;28;20204;-71
2022/03/30 00:07:53;;;;;;;18.83;10.63;;;;;;;15.15;46.94;99386.38;5030895;28;20227;-72
2022/03/30 00:10:20;;;;;;;22.63;9.98;;;;;;;15.41;47.34;99459.13;5031177;28;21108;-72
2022/03/30 00:12:48;;;;;;;15.18;9.93;;;;;;;15.44;47.50;99453.88;5031237;28;20661;-71
2022/03/30 00:15:15;;;;;;;17.85;9.40;;;;;;;15.41;47.36;99456.50;5030971;28;20204;-71
2022/03/30 00:17:42;;;;;;;20.65;10.55;;;;;;;15.45;47.38;99455.56;5030240;28;20253;-72
2022/03/30 00:20:10;;;;;;;19.27;9.60;;;;;;;15.34;47.21;99440.06;5030708;28;20196;-71
2022/03/30 00:22:38;;;;;;;16.48;8.45;;;;;;;15.46;47.30;99446.84;5031016;28;20680;-71
2022/03/30 00:25:07;;;;;;;25.55;11.18;;;;;;;15.43;47.33;99451.25;5030258;28;20634;-71
2022/03/30 00:27:34;;;;;;;14.23;8.65;;;;;;;15.39;47.18;99448.72;5012341;28;20219;-71
2022/03/30 00:30:01;;;;;;;20.05;9.85;;;;;;;15.39;47.55;99435.66;5030848;28;20211;-71
2022/03/30 00:32:28;;;;;;;21.95;10.73;;;;;;;15.40;47.03;99452.19;5017930;28;20204;-71
2022/03/30 00:34:55;;;;;;;13.60;6.30;;;;;;;15.37;47.52;99437.41;5030796;28;20266;-71
2022/03/30 00:37:22;;;;;;;20.23;9.20;;;;;;;15.41;47.24;99437.38;5030922;28;20267;-71
2022/03/30 00:39:49;;;;;;;17.65;10.07;;;;;;;15.33;47.16;99427.91;5030743;28;20770;-71
2022/03/30 00:42:18;;;;;;;15.80;10.23;;;;;;;15.42;47.20;99434.72;5030908;28;20208;-71
2022/03/30 00:44:46;;;;;;;9.15;7.28;;;;;;;15.39;47.27;99440.00;5030265;28;20200;-72
2022/03/30 00:47:15;;;;;;;11.90;6.57;;;;;;;15.46;46.70;99435.53;5030737;28;20291;-71
2022/03/30 00:49:42;;;;;;;14.52;8.55;;;;;;;15.24;46.88;99407.13;5030396;28;20224;-72
2022/03/30 00:52:09;;;;;;;14.98;9.93;;;;;;;15.45;46.92;99444.25;5030245;28;20211;-71
2022/03/30 00:54:37;;;;;;;15.77;9.52;;;;;;;15.30;46.86;99443.59;5030604;28;20200;-72
2022/03/30 00:57:05;;;;;;;15.88;8.98;;;;;;;15.42;46.84;99449.53;5030161;28;20557;-72
2022/03/30 00:59:34;;;;;;;24.75;10.40;;;;;;;15.42;46.92;99444.31;5030831;28;20208;-71
2022/03/30 01:02:01;;;;;;;15.48;8.82;;;;;;;15.38;46.91;99439.13;5029828;28;20247;-72
2022/03/30 01:04:29;;;;;;;19.00;10.00;;;;;;;15.25;46.94;99437.59;5030345;28;20200;-71
2022/03/30 01:06:55;;;;;;;17.65;10.32;;;;;;;15.34;47.08;99441.81;5029801;28;20219;-72
2022/03/30 01:09:23;;;;;;;17.27;10.02;;;;;;;15.33;47.11;99440.97;5030554;28;20204;-71
2022/03/30 01:11:50;;;;;;;19.48;10.75;;;;;;;15.30;47.14;99440.16;5030313;28;20208;-73
2022/03/30 01:14:18;;;;;;;24.27;11.30;;;;;;;15.31;47.16;99434.00;5030572;28;20648;-72
2022/03/30 01:16:46;;;;;;;18.27;11.40;;;;;;;15.37;46.91;99432.19;4994647;28;20230;-72
2022/03/30 01:19:14;;;;;;;18.00;11.07;;;;;;;15.31;46.87;99427.06;5030152;28;20578;-72
2022/03/30 01:21:43;;;;;;;15.43;8.73;;;;;;;15.45;46.84;99423.34;5030361;28;20691;-72
2022/03/30 01:24:12;;;;;;;19.15;8.98;;;;;;;15.50;46.50;99432.03;4995739;28;20687;-72
2022/03/30 01:26:40;;;;;;;17.48;10.20;;;;;;;15.47;46.55;99427.69;5011593;28;20847;-72
2022/03/30 01:34:34;;;;;;;4.40;4.07;;;;;;;15.30;46.67;99409.63;5034722;28;20713;-72
2022/03/30 01:37:02;;;;;;;26.98;10.95;;;;;;;15.46;46.67;99430.31;5033598;28;20278;-72
2022/03/30 01:39:29;;;;;;;18.27;10.23;;;;;;;15.39;47.12;99432.16;5034482;28;20643;-72
2022/03/30 01:41:55;;;;;;;9.90;5.95;;;;;;;15.43;47.02;99427.75;5033979;28;20208;-72
2022/03/30 01:44:24;;;;;;;13.48;8.60;;;;;;;15.44;47.03;99421.66;5033775;28;20207;-72
2022/03/30 01:46:51;;;;;;;12.65;7.18;;;;;;;15.43;46.66;99396.41;5033831;28;20226;-72
2022/03/30 01:49:21;;;;;;;19.52;10.73;;;;;;;15.47;46.30;99403.31;5034429;28;20204;-72
2022/03/30 01:51:48;;;;;;;23.77;12.13;;;;;;;15.48;46.59;99421.56;5033729;28;20736;-72
2022/03/30 01:54:17;;;;;;;24.83;10.88;;;;;;;15.39;46.60;99409.53;5030228;28;20601;-72
2022/03/30 01:56:44;;;;;;;23.00;12.63;;;;;;;15.19;46.81;99395.91;5033951;28;20228;-72
2022/03/30 01:59:10;;;;;;;16.95;9.80;;;;;;;15.38;46.89;99418.25;5034349;28;20283;-72
2022/03/30 02:01:38;;;;;;;19.52;11.02;;;;;;;15.25;47.08;99406.25;5033893;28;20207;-72
2022/03/30 02:04:06;;;;;;;16.60;8.68;;;;;;;15.23;47.13;99401.94;5033468;28;20673;-72
2022/03/30 02:06:33;;;;;;;18.10;10.35;;;;;;;15.14;47.57;99397.72;5033286;28;20656;-72
2022/03/30 02:08:59;;;;;;;20.95;11.52;;;;;;;15.21;47.31;99421.97;5033650;28;20648;-72
2022/03/30 02:11:28;;;;;;;9.73;6.15;;;;;;;15.22;47.36;99426.31;5032436;28;20200;-73
2022/03/30 02:13:55;;;;;;;17.23;8.68;;;;;;;15.19;47.41;99423.75;5031567;28;20196;-72
2022/03/30 02:16:23;;;;;;;15.88;9.60;;;;;;;15.17;47.28;99415.94;5033565;28;20586;-71
2022/03/30 02:18:49;;;;;;;17.55;10.80;;;;;;;15.16;47.58;99427.25;5033745;28;20208;-72
2022/03/30 02:21:16;;;;;;;26.60;12.02;;;;;;;15.19;47.84;99427.25;5033660;28;20212;-72
2022/03/30 02:23:45;;;;;;;21.65;11.52;;;;;;;14.95;47.87;99396.22;5033324;28;20216;-72
2022/03/30 02:26:12;;;;;;;16.02;10.02;;;;;;;15.02;48.14;99423.16;5033401;28;20266;-72
2022/03/30 02:28:41;;;;;;;19.75;12.57;;;;;;;15.12;47.93;99425.59;5033189;28;20696;-72
2022/03/30 02:31:08;;;;;;;17.52;10.77;;;;;;;14.98;48.46;99431.91;5032820;28;20738;-72
2022/03/30 02:33:35;;;;;;;22.38;12.25;;;;;;;14.95;48.38;99427.56;5033373;28;20278;-72
2022/03/30 02:36:01;;;;;;;24.58;13.77;;;;;;;14.89;48.54;99427.66;5033048;28;20204;-72
2022/03/30 02:38:28;;;;;;;23.00;12.48;;;;;;;14.81;48.61;99430.34;5033436;28;20200;-72
2022/03/30 02:40:55;;;;;;;23.02;12.05;;;;;;;14.72;48.59;99413.94;5032849;28;20366;-72
2022/03/30 02:43:22;;;;;;;20.90;12.48;;;;;;;14.79;48.99;99426.03;5031901;28;20204;-72
2022/03/30 02:45:51;;;;;;;23.33;11.32;;;;;;;14.85;48.76;99431.16;5032876;28;20204;-72
2022/03/30 02:48:22;;;;;;;23.52;12.48;;;;;;;14.26;49.20;99362.31;5030932;28;20231;-72
2022/03/30 02:50:51;;;;;;;26.10;12.77;;;;;;;14.77;48.96;99446.06;5032909;28;20204;-72
2022/03/30 02:53:19;;;;;;;24.27;12.38;;;;;;;14.74;49.27;99446.09;5032770;28;20215;-72
2022/03/30 02:55:46;;;;;;;26.67;13.10;;;;;;;14.47;49.18;99444.69;5032596;28;20212;-72
2022/03/30 02:58:14;;;;;;;21.27;12.73;;;;;;;14.47;49.54;99438.59;5031864;28;20207;-72
2022/03/30 03:00:42;;;;;;;24.33;13.10;;;;;;;14.55;49.32;99463.72;5031285;28;20799;-72
2022/03/30 03:03:11;;;;;;;23.50;12.27;;;;;;;14.59;49.48;99464.56;4947924;28;20685;-72
2022/03/30 03:05:39;;;;;;;27.90;13.57;;;;;;;14.47;49.94;99460.34;5031295;28;20204;-74
2022/03/30 03:08:07;;;;;;;23.70;12.40;;;;;;;14.59;49.30;99460.19;5032713;28;20224;-74
2022/03/30 03:10:36;;;;;;;16.48;10.70;;;;;;;14.69;49.83;99453.13;5032339;28;20561;-74
2022/03/30 03:13:04;;;;;;;22.70;11.15;;;;;;;14.67;49.80;99444.44;5032173;28;20215;-74
2022/03/30 03:15:31;;;;;;;25.92;12.52;;;;;;;14.66;49.83;99461.00;5031548;28;20484;-73
2022/03/30 03:17:58;;;;;;;23.33;12.50;;;;;;;14.72;49.59;99460.91;5031891;28;20208;-73
2022/03/30 03:20:27;;;;;;;15.88;9.45;;;;;;;14.76;49.86;99458.25;5032255;28;20239;-73
2022/03/30 03:22:54;;;;;;;19.17;10.45;;;;;;;14.72;49.82;99459.19;5031974;28;20287;-73
2022/03/30 03:25:22;;;;;;;22.97;13.37;;;;;;;14.63;49.85;99446.22;5030717;28;20453;-73
2022/03/30 03:27:49;;;;;;;18.20;10.13;;;;;;;14.70;49.52;99455.72;5032193;28;20261;-73
2022/03/30 03:30:16;;;;;;;22.25;12.23;;;;;;;14.66;49.79;99454.00;5032224;28;20200;-72
2022/03/30 03:32:43;;;;;;;22.55;12.70;;;;;;;14.72;49.53;99458.31;5032237;28;20212;-79
2022/03/30 03:35:10;;;;;;;16.02;10.73;;;;;;;14.74;49.60;99459.13;5031681;28;20192;-74
2022/03/30 03:37:39;;;;;;;19.17;9.95;;;;;;;14.76;49.74;99457.41;5031932;28;20576;-74
2022/03/30 03:40:08;;;;;;;19.05;12.98;;;;;;;14.72;49.67;99456.56;4995603;28;20204;-74
2022/03/30 03:42:36;;;;;;;16.52;10.18;;;;;;;14.82;49.46;99462.53;5031280;28;20242;-74
2022/03/30 03:45:04;;;;;;;20.02;9.85;;;;;;;14.84;49.23;99455.53;5031069;28;20200;-75
2022/03/30 03:47:32;;;;;;;20.35;10.77;;;;;;;14.80;49.38;99466.91;5030960;28;20314;-75
2022/03/30 03:49:58;;;;;;;21.63;11.85;;;;;;;14.82;49.23;99454.69;5030567;28;20227;-75
2022/03/30 03:52:25;;;;;;;26.17;12.90;;;;;;;14.87;49.35;99460.75;5029848;28;20196;-74
2022/03/30 03:54:53;;;;;;;22.20;11.95;;;;;;;14.45;49.28;99383.81;5031537;28;20274;-74
2022/03/30 03:57:20;;;;;;;16.90;11.30;;;;;;;14.87;49.19;99455.53;5031546;28;20761;-74
2022/03/30 03:59:47;;;;;;;19.83;12.30;;;;;;;14.95;49.10;99458.88;5031400;28;20215;-75
2022/03/30 04:02:14;;;;;;;26.02;12.50;;;;;;;14.83;49.15;99456.44;5031232;28;20232;-75
2022/03/30 04:04:41;;;;;;;23.75;11.00;;;;;;;14.65;49.00;99425.34;5031557;28;20218;-74
2022/03/30 04:07:07;;;;;;;25.92;13.13;;;;;;;14.83;49.37;99449.47;5029974;28;20215;-75
2022/03/30 04:09:34;;;;;;;24.60;12.10;;;;;;;14.93;49.12;99457.19;5031585;28;20232;-75
2022/03/30 04:12:02;;;;;;;22.60;12.38;;;;;;;14.93;49.28;99455.44;5030666;28;20204;-75
2022/03/30 04:14:29;;;;;;;23.00;13.13;;;;;;;14.81;49.44;99466.00;5031208;28;20599;-75
2022/03/30 04:16:56;;;;;;;21.42;12.07;;;;;;;14.67;49.56;99445.31;5029570;28;20591;-75
2022/03/30 04:19:23;;;;;;;27.15;13.13;;;;;;;14.67;49.38;99441.81;5024901;28;20204;-75
2022/03/30 04:21:49;;;;;;;27.73;12.65;;;;;;;14.75;49.54;99466.97;5030461;28;20258;-74
2022/03/30 04:24:16;;;;;;;25.25;12.02;;;;;;;14.81;49.76;99468.63;5030909;28;20200;-75
2022/03/30 04:26:43;;;;;;;24.73;12.10;;;;;;;14.68;49.76;99448.78;5031195;28;20199;-75
2022/03/30 04:29:11;;;;;;;25.25;11.90;;;;;;;14.72;50.15;99472.22;5031396;28;20301;-75
2022/03/30 04:31:38;;;;;;;25.35;11.27;;;;;;;14.42;50.07;99398.66;5031146;28;20833;-74
2022/03/30 04:34:05;;;;;;;17.15;10.68;;;;;;;14.80;49.79;99469.53;5011573;28;20739;-74
2022/03/30 04:36:31;;;;;;;26.42;13.52;;;;;;;14.76;50.29;99475.66;5027766;28;20644;-75
2022/03/30 04:38:58;;;;;;;22.52;12.82;;;;;;;14.59;51.19;99469.78;4995892;28;20215;-74
2022/03/30 04:41:25;;;;;;;24.52;11.90;;;;;;;14.50;51.72;99480.28;4996115;28;20191;-74
2022/03/30 04:43:52;;;;;;;21.48;12.55;;;;;;;14.50;51.91;99475.06;5031197;28;20211;-75
2022/03/30 04:46:20;;;;;;;25.83;11.95;;;;;;;14.30;52.44;99486.53;5030811;28;20200;-74
2022/03/30 04:48:47;;;;;;;31.92;13.70;;;;;;;14.25;53.04;99479.66;5030659;28;20227;-75
2022/03/30 04:51:13;;;;;;;27.15;12.10;;;;;;;14.32;53.21;99484.78;5030659;28;20676;-74
2022/03/30 04:53:40;;;;;;;21.38;13.07;;;;;;;14.34;53.00;99490.00;5030432;28;20570;-74
2022/03/30 04:56:07;;;;;;;20.92;13.13;;;;;;;14.43;52.69;99491.66;5011779;28;20188;-74
2022/03/30 04:58:34;;;;;;;34.28;14.73;;;;;;;14.62;52.58;99501.03;5030912;28;20208;-74
2022/03/30 05:01:01;;;;;;;24.30;13.50;;;;;;;14.82;51.96;99497.34;5030316;28;20570;-73
2022/03/30 05:03:29;;;;;;;27.38;13.90;;;;;;;15.18;51.94;99498.63;5011947;28;20740;-73
2022/03/30 05:05:56;;;;;;;23.75;14.07;;;;;;;15.23;51.05;99468.06;5029653;28;20216;-73
2022/03/30 05:08:23;;;;;;;39.85;14.15;;;;;;;15.51;50.83;99499.09;5030574;28;20285;-75
2022/03/30 05:10:50;;;;;;;32.83;13.60;;;;;;;15.44;50.88;99502.66;5030037;28;20208;-74
2022/03/30 05:13:17;;;;;;;24.63;13.63;;;;;;;15.47;51.21;99498.25;5029543;28;20196;-74
2022/03/30 05:15:43;;;;;;;32.28;13.10;;;;;;;15.02;51.83;99497.06;5030317;28;20196;-74
2022/03/30 05:18:11;;;;;;;34.03;13.32;;;;;;;15.07;51.90;99495.28;5030344;28;20308;-74
2022/03/30 05:20:43;;;;;;;34.70;16.05;;;;;;;14.94;52.48;99504.16;5029801;28;20220;-74
2022/03/30 05:23:09;;;;;;;47.20;17.10;;;;;;;14.87;52.98;99499.91;5030040;28;20285;-73
2022/03/30 05:25:37;;;;;;;28.08;15.50;;;;;;;14.78;53.08;99487.81;5030565;28;20196;-77
2022/03/30 05:28:04;;;;;;;38.53;15.00;;;;;;;14.81;53.50;99494.72;5030103;28;20234;-75
2022/03/30 05:30:31;;;;;;;32.20;13.25;;;;;;;14.80;53.48;99500.84;5028485;28;20204;-75
2022/03/30 05:32:58;;;;;;;29.70;13.85;;;;;;;14.87;53.47;99497.28;5029403;28;20357;-75
2022/03/30 05:35:24;;;;;;;30.20;15.18;;;;;;;14.70;53.28;99467.88;5030397;28;20196;-75
2022/03/30 05:37:52;;;;;;;35.58;14.65;;;;;;;15.08;53.51;99498.75;4989748;28;20274;-74
2022/03/30 05:40:19;;;;;;;41.83;15.32;;;;;;;15.12;53.31;99503.94;5029100;28;20687;-74
2022/03/30 05:42:47;;;;;;;33.17;16.15;;;;;;;14.79;53.62;99426.03;5029855;28;20211;-74
2022/03/30 05:45:14;;;;;;;34.85;15.18;;;;;;;15.26;53.30;99512.47;5034685;28;20539;-76
2022/03/30 05:47:42;;;;;;;32.88;15.63;;;;;;;15.35;53.20;99504.50;5035037;28;20208;-76
2022/03/30 05:50:09;;;;;;;37.88;16.52;;;;;;;15.56;52.94;99515.56;5035014;28;20211;-75
2022/03/30 05:52:36;;;;;;;31.08;16.85;;;;;;;15.65;52.41;99510.22;5033508;28;20200;-76
2022/03/30 05:55:05;;;;;;;37.25;15.18;;;;;;;15.83;53.71;99525.63;5012391;28;20203;-75
2022/03/30 05:57:32;;;;;;;50.40;17.50;;;;;;;15.87;53.18;99524.69;5011104;28;20199;-74
2022/03/30 05:59:59;;;;;;;34.85;15.50;;;;;;;15.88;52.95;99521.16;5011141;28;20250;-74
2022/03/30 06:02:27;;;;;;;44.90;18.92;;;;;;;16.03;52.94;99523.53;5010704;28;20228;-73
2022/03/30 06:04:56;;;;;;;71.60;30.05;;;;;;;16.43;81.63;99518.50;5029600;28;20200;-74
2022/03/30 06:07:23;;;;;;;86.95;34.17;;;;;;;16.64;64.02;99507.69;4995840;28;20192;-73
2022/03/30 06:09:50;;;;;;;79.35;29.38;;;;;;;16.64;53.84;99519.91;5010863;28;20255;-72
2022/03/30 06:12:18;;;;;;;79.47;28.67;;;;;;;16.77;52.46;99510.91;5029354;28;20196;-72
2022/03/30 06:14:45;;;;;;;40.58;16.73;;;;;;;16.82;50.30;99517.81;5010893;28;20200;-72
2022/03/30 06:17:12;;;;;;;22.55;11.63;;;;;;;17.05;48.88;99514.72;5032049;28;20201;-73
2022/03/30 06:19:40;;;;;;;21.50;9.70;;;;;;;17.29;47.71;99509.00;5014463;28;20200;-72
2022/03/30 06:22:09;;;;;;;29.40;12.85;;;;;;;17.52;47.50;99515.47;5032990;28;20204;-72
2022/03/30 06:24:37;;;;;;;21.70;10.77;;;;;;;17.61;46.64;99517.94;5032960;28;20224;-73
2022/03/30 06:27:05;;;;;;;22.40;11.60;;;;;;;17.63;45.83;99495.16;5014573;28;20259;-72
2022/03/30 06:29:33;;;;;;;19.48;9.68;;;;;;;17.59;45.18;99498.75;5032665;28;20234;-72
2022/03/30 06:32:00;;;;;;;24.60;12.85;;;;;;;17.87;44.92;99518.22;5032716;28;20555;-72
2022/03/30 06:34:27;;;;;;;18.65;10.13;;;;;;;17.83;44.94;99513.94;5032803;28;20668;-73
2022/03/30 06:36:54;;;;;;;20.15;10.25;;;;;;;17.88;44.59;99514.66;5032726;28;20200;-76
2022/03/30 06:39:20;;;;;;;23.65;9.80;;;;;;;17.71;44.35;99490.59;5032706;28;20677;-77
2022/03/30 06:41:48;;;;;;;15.20;8.73;;;;;;;17.63;44.28;99503.03;5032634;28;20262;-76
2022/03/30 06:44:15;;;;;;;18.95;9.65;;;;;;;17.88;44.32;99519.91;5032429;28;20207;-75
2022/03/30 06:46:43;;;;;;;19.50;10.60;;;;;;;17.98;44.20;99526.66;5032881;28;20196;-74
2022/03/30 06:49:11;;;;;;;18.90;10.75;;;;;;;17.86;43.95;99506.00;5032679;28;20232;-75
2022/03/30 06:51:38;;;;;;;18.33;9.52;;;;;;;17.81;44.29;99513.09;5032521;28;20283;-75
2022/03/30 06:54:05;;;;;;;20.38;10.38;;;;;;;17.97;43.84;99524.09;5032272;28;20287;-74
2022/03/30 06:56:32;;;;;;;20.15;9.77;;;;;;;18.01;43.82;99516.13;5032458;28;20200;-75
2022/03/30 06:58:59;;;;;;;15.65;10.20;;;;;;;18.10;43.88;99515.00;5031897;28;20204;-75
2022/03/30 07:01:26;;;;;;;18.40;10.40;;;;;;;18.18;43.61;99527.06;5032050;28;20196;-73
2022/03/30 07:03:54;;;;;;;20.83;10.55;;;;;;;18.19;43.77;99530.56;5032255;28;20672;-74
2022/03/30 07:06:21;;;;;;;21.98;10.35;;;;;;;18.28;43.24;99536.44;5032232;28;20193;-74
2022/03/30 07:11:32;;;;;;;17.48;10.27;;;;;;;18.35;43.17;99534.50;5032238;28;20211;-73
2022/03/30 07:13:58;;;;;;;21.40;10.07;;;;;;;18.38;42.74;99525.69;5032152;28;20196;-73
2022/03/30 07:16:25;;;;;;;22.42;9.90;;;;;;;18.61;43.22;99533.88;5032068;28;20261;-73
2022/03/30 07:18:55;;;;;;;19.38;9.60;;;;;;;18.60;42.22;99538.25;5032030;28;20200;-73
2022/03/30 07:21:22;;;;;;;20.50;10.07;;;;;;;18.68;42.24;99538.06;5031974;28;20211;-73
2022/03/30 07:23:49;;;;;;;17.35;8.70;;;;;;;18.76;42.27;99522.97;4996763;28;20597;-73
2022/03/30 07:26:16;;;;;;;20.13;10.10;;;;;;;19.02;41.67;99530.97;5031869;28;20203;-73
2022/03/30 07:28:42;;;;;;;20.35;9.90;;;;;;;18.70;42.22;99536.25;5031061;28;20239;-73
2022/03/30 07:31:09;;;;;;;17.95;10.30;;;;;;;18.73;41.68;99550.16;5031751;28;20200;-73
2022/03/30 07:33:36;;;;;;;18.17;8.98;;;;;;;18.70;41.90;99547.63;5031454;28;20200;-73
2022/03/30 07:36:05;;;;;;;16.23;8.98;;;;;;;18.87;42.05;99551.56;5031768;28;20207;-73
2022/03/30 07:38:31;;;;;;;26.02;11.50;;;;;;;18.90;42.18;99559.38;5031631;28;20208;-73
2022/03/30 07:41:00;;;;;;;19.85;8.95;;;;;;;18.91;42.08;99553.19;5031849;28;20207;-73
2022/03/30 07:43:28;;;;;;;14.32;8.88;;;;;;;18.77;41.50;99524.66;5031651;28;20220;-73
2022/03/30 07:45:55;;;;;;;14.05;8.48;;;;;;;19.10;42.02;99544.75;5029378;28;20204;-73
2022/03/30 07:48:22;;;;;;;20.85;9.57;;;;;;;19.10;41.79;99552.66;5031485;28;20196;-73
2022/03/30 07:50:49;;;;;;;18.92;9.55;;;;;;;19.10;41.70;99554.41;5031238;28;20204;-73
2022/03/30 07:53:17;;;;;;;17.80;9.15;;;;;;;19.20;42.06;99545.34;5031361;28;20200;-73
2022/03/30 07:55:44;;;;;;;14.75;8.55;;;;;;;19.20;41.99;99551.47;5031190;28;20200;-73
2022/03/30 07:58:11;;;;;;;19.95;9.25;;;;;;;19.22;42.14;99552.31;5031338;28;20200;-73
2022/03/30 08:00:38;;;;;;;14.80;9.05;;;;;;;19.31;41.90;99538.91;5031055;28;20211;-73
2022/03/30 08:03:05;;;;;;;22.50;9.57;;;;;;;19.32;42.30;99550.28;5031487;28;20297;-73
2022/03/30 08:05:32;;;;;;;19.52;8.48;;;;;;;19.43;42.31;99552.63;5012529;28;20189;-73
2022/03/30 08:08:00;;;;;;;17.02;9.30;;;;;;;19.37;42.40;99547.53;5031245;28;20200;-74
2022/03/30 08:10:30;;;;;;;24.23;8.85;;;;;;;19.55;42.79;99553.09;5031005;28;20594;-74
2022/03/30 08:12:57;;;;;;;20.40;9.77;;;;;;;19.73;42.72;99547.28;5030764;28;20666;-74
2022/03/30 08:15:24;;;;;;;17.63;9.32;;;;;;;19.72;42.24;99542.09;5031009;28;20257;-73
2022/03/30 08:17:51;;;;;;;18.45;9.07;;;;;;;19.60;42.23;99550.34;5030925;28;20200;-74
2022/03/30 08:23:04;;;;;;;22.13;9.20;;;;;;;19.97;41.95;99527.28;5030925;28;20322;-74
2022/03/30 08:25:34;;;;;;;15.60;9.15;;;;;;;19.80;41.50;99526.91;5030782;28;20595;-73
2022/03/30 08:28:00;;;;;;;25.60;10.32;;;;;;;19.89;41.78;99531.03;5030703;28;20196;-73
2022/03/30 08:30:27;;;;;;;24.00;9.50;;;;;;;19.99;42.04;99533.31;5030500;28;20227;-73
2022/03/30 08:32:55;;;;;;;19.13;9.55;;;;;;;19.97;42.01;99506.22;5031029;28;20211;-73
2022/03/30 08:35:22;;;;;;;12.57;8.32;;;;;;;20.00;40.41;99523.66;5030492;28;20200;-73
2022/03/30 08:37:50;;;;;;;10.48;7.15;;;;;;;20.03;39.72;99529.69;5030417;28;20215;-73
2022/03/30 08:40:17;;;;;;;22.40;8.57;;;;;;;20.32;39.73;99520.00;5029545;28;20200;-73
2022/03/30 08:42:45;;;;;;;17.20;8.10;;;;;;;20.35;39.58;99525.16;5030488;28;20207;-73
2022/03/30 08:45:12;;;;;;;17.88;7.78;;;;;;;20.36;39.68;99524.25;5030427;28;20553;-73
2022/03/30 08:47:39;;;;;;;19.00;9.88;;;;;;;20.32;39.44;99507.72;5030541;28;20192;-75
2022/03/30 08:50:07;;;;;;;15.43;7.60;;;;;;;20.44;39.48;99509.91;5028076;28;20232;-74
2022/03/30 08:52:34;;;;;;;19.50;9.52;;;;;;;20.73;39.55;99515.03;5030300;28;20207;-73
2022/03/30 08:55:02;;;;;;;10.07;6.95;;;;;;;20.57;39.14;99519.13;5030282;28;20620;-73
2022/03/30 08:57:29;;;;;;;17.80;9.13;;;;;;;20.64;39.28;99506.59;5030167;28;20196;-73
2022/03/30 09:00:03;;;;;;;15.77;7.30;;;;;;;20.69;38.86;99494.13;4995695;28;20209;-73
2022/03/30 09:02:35;;;;;;;17.52;9.05;;;;;;;21.05;38.71;99503.31;5030181;28;20616;-73
2022/03/30 09:05:14;;;;;;;20.05;9.05;;;;;;;21.21;37.98;99504.53;5029966;28;20208;-73
2022/03/30 09:07:42;;;;;;;15.70;8.18;;;;;;;21.04;37.86;99506.91;5030431;28;20231;-74
2022/03/30 09:10:20;;;;;;;20.52;8.98;;;;;;;20.98;37.72;99479.88;5029872;28;20314;-74
2022/03/30 09:12:49;;;;;;;16.30;8.48;;;;;;;21.10;37.70;99488.25;5030411;28;20196;-74
2022/03/30 09:15:20;;;;;;;18.40;8.63;;;;;;;21.46;37.44;99506.22;5030011;28;20208;-74
2022/03/30 09:17:47;;;;;;;17.15;8.05;;;;;;;21.31;37.14;99490.97;5030106;28;20203;-74
2022/03/30 09:20:17;;;;;;;18.05;9.48;;;;;;;21.54;37.50;99501.53;5030070;28;20199;-74
2022/03/30 09:22:48;;;;;;;16.02;9.05;;;;;;;21.36;37.14;99492.53;5029910;28;20250;-73
2022/03/30 09:25:15;;;;;;;15.90;8.57;;;;;;;21.47;37.31;99473.66;5030320;28;20262;-73
2022/03/30 09:27:43;;;;;;;18.13;8.20;;;;;;;21.61;36.84;99477.47;5011417;28;20277;-73
2022/03/30 09:30:14;;;;;;;12.55;8.15;;;;;;;21.64;37.14;99484.41;5029878;28;20281;-73
2022/03/30 09:32:45;;;;;;;24.35;9.13;;;;;;;21.60;37.14;99448.50;5011507;28;20226;-73
2022/03/30 09:35:25;;;;;;;17.10;8.65;;;;;;;21.72;37.04;99448.03;5029813;28;20604;-73
2022/03/30 09:38:08;;;;;;;23.70;9.05;;;;;;;21.75;36.38;99469.00;5029880;28;20254;-74
2022/03/30 09:40:44;;;;;;;24.85;9.18;;;;;;;21.63;36.81;99457.16;5029893;28;20200;-74
2022/03/30 09:43:23;;;;;;;23.95;10.00;;;;;;;21.96;36.81;99444.41;5029749;28;20192;-72
2022/03/30 09:45:52;;;;;;;17.48;8.82;;;;;;;22.17;36.85;99475.19;5029650;28;20287;-74
2022/03/30 09:48:27;;;;;;;18.15;8.35;;;;;;;22.19;36.03;99439.00;5029996;28;21018;-74
2022/03/30 09:50:55;;;;;;;14.13;9.30;;;;;;;22.10;36.03;99442.06;5030330;28;20286;-74
2022/03/30 09:53:25;;;;;;;22.35;9.75;;;;;;;22.50;35.96;99417.44;5033591;28;20266;-74
2022/03/30 09:55:57;;;;;;;25.05;9.70;;;;;;;22.69;35.44;99452.69;5033629;28;20209;-74
2022/03/30 09:58:26;;;;;;;12.18;6.45;;;;;;;22.40;35.51;99454.88;5033863;28;20235;-74
2022/03/30 10:01:21;;;;;;;18.50;9.60;;;;;;;22.61;34.78;99459.25;5033625;28;20652;-73
2022/03/30 10:03:51;;;;;;;22.27;8.70;;;;;;;22.70;34.63;99454.44;5033499;28;20232;-75
2022/03/30 10:06:21;;;;;;;16.10;9.15;;;;;;;22.89;35.37;99458.91;5035208;28;20212;-74
2022/03/30 10:08:49;;;;;;;14.65;8.32;;;;;;;22.65;34.83;99435.22;5033299;28;20196;-75
2022/03/30 10:11:17;;;;;;;21.25;9.43;;;;;;;22.60;34.63;99450.44;5033303;28;20715;-75
2022/03/30 10:13:46;;;;;;;19.58;9.45;;;;;;;22.70;34.25;99445.63;5033158;28;20204;-75
2022/03/30 10:16:16;;;;;;;16.40;8.77;;;;;;;22.82;34.18;99439.81;5033293;28;20666;-75
2022/03/30 10:18:44;;;;;;;15.40;9.43;;;;;;;23.05;34.38;99436.97;5033559;28;20749;-74
2022/03/30 10:21:23;;;;;;;23.27;10.43;;;;;;;23.35;34.34;99436.47;5035144;28;20730;-75
2022/03/30 10:24:10;;;;;;;20.10;8.88;;;;;;;22.81;34.41;99443.38;5038365;28;20202;-75
2022/03/30 10:26:49;;;;;;;22.75;9.88;;;;;;;23.19;34.74;99436.31;5036391;28;20676;-75
2022/03/30 10:29:18;;;;;;;15.80;8.52;;;;;;;23.08;34.20;99434.16;5032363;28;20210;-76
2022/03/30 10:32:12;;;;;;;29.55;9.88;;;;;;;23.54;34.03;99424.13;5033014;28;20645;-75
2022/03/30 10:34:49;;;;;;;21.67;9.65;;;;;;;23.77;33.85;99422.97;5032783;28;20258;-74
2022/03/30 10:37:25;;;;;;;21.92;10.77;;;;;;;24.02;33.76;99424.34;5014013;28;20299;-74
2022/03/30 10:40:05;;;;;;;16.45;9.07;;;;;;;23.50;33.93;99419.91;5033050;28;20204;-74
2022/03/30 10:43:00;;;;;;;18.80;10.63;;;;;;;23.38;34.17;99416.00;5032970;28;20200;-72
2022/03/30 10:45:33;;;;;;;21.63;10.63;;;;;;;23.86;33.79;99410.16;5032539;28;20266;-72
2022/03/30 10:48:08;;;;;;;23.50;10.07;;;;;;;23.78;33.81;99417.63;5032619;28;20200;-73
2022/03/30 10:50:37;;;;;;;22.15;9.60;;;;;;;23.34;33.73;99408.28;5032589;28;20227;-74
2022/03/30 10:53:42;;;;;;;18.40;10.15;;;;;;;23.44;33.79;99396.34;5032856;28;20204;-74
2022/03/30 10:56:32;;;;;;;21.92;10.30;;;;;;;23.40;33.42;99421.25;5032255;28;20886;-73
2022/03/30 10:59:14;;;;;;;14.88;10.05;;;;;;;23.35;33.78;99413.50;5032609;28;20413;-73
2022/03/30 11:01:41;;;;;;;25.38;11.60;;;;;;;23.57;33.78;99408.94;5032994;28;20192;-73
2022/03/30 11:04:24;;;;;;;25.17;11.88;;;;;;;23.26;33.21;99407.81;5032450;28;20261;-73
2022/03/30 11:07:39;;;;;;;22.13;10.68;;;;;;;23.68;32.64;99395.19;5033041;28;20672;-73
2022/03/30 11:10:30;;;;;;;23.15;11.88;;;;;;;23.71;32.68;99365.91;5032904;28;20255;-74
2022/03/30 11:13:16;;;;;;;23.88;11.75;;;;;;;23.97;33.11;99378.66;5030800;28;20206;-73
2022/03/30 11:16:11;;;;;;;25.00;9.95;;;;;;;23.70;32.76;99380.06;5033035;28;20199;-74
2022/03/30 11:19:00;;;;;;;25.40;11.55;;;;;;;23.69;32.85;99376.56;5032889;28;20377;-74
2022/03/30 11:21:27;;;;;;;21.60;11.68;;;;;;;23.90;32.56;99379.09;5032589;28;20211;-74
2022/03/30 11:24:21;;;;;;;27.08;11.65;;;;;;;23.78;33.04;99375.25;5032792;28;20204;-73
2022/03/30 11:27:23;;;;;;;22.15;12.30;;;;;;;23.86;32.80;99367.78;4971467;28;20206;-74
2022/03/30 11:30:12;;;;;;;26.63;11.85;;;;;;;24.05;32.26;99367.69;4971515;28;20225;-74
2022/03/30 11:32:55;;;;;;;28.10;12.38;;;;;;;24.12;31.92;99343.47;4971668;28;20229;-74
2022/03/30 11:35:24;;;;;;;19.63;12.00;;;;;;;23.97;31.90;99365.44;4971334;28;20679;-73
2022/03/30 11:38:07;;;;;;;20.02;10.18;;;;;;;23.78;32.32;99356.72;4971353;28;20294;-75
2022/03/30 11:40:43;;;;;;;20.75;11.85;;;;;;;23.84;31.69;99321.97;4971346;28;20206;-74
2022/03/30 11:43:13;;;;;;;20.48;12.52;;;;;;;23.76;31.92;99350.63;4971062;28;20651;-74